sensor_id;sensor_type;location;lat;lon;timestamp;pressure;altitude;pressure_sealevel;temperature;humidity
56052;BME280;41919;42.648;23.384;2023-04-03T00:00:08;93884.56;;;6.68;65.34
56052;BME280;41919;42.648;23.384;2023-04-03T00:02:34;93908.13;;;6.66;66.55
56052;BME280;41919;42.648;23.384;2023-04-03T00:05:00;93970.97;;;7.03;66.92
56052;BME280;41919;42.648;23.384;2023-04-03T00:07:25;93828.88;;;6.09;67.11
56052;BME280;41919;42.648;23.384;2023-04-03T00:09:51;93937.72;;;6.72;67.79
56052;BME280;41919;42.648;23.384;2023-04-03T00:12:16;93959.50;;;6.78;68.17
56052;BME280;41919;42.648;23.384;2023-04-03T00:14:42;93921.72;;;6.68;68.09
56052;BME280;41919;42.648;23.384;2023-04-03T00:17:07;93880.91;;;6.49;67.82
56052;BME280;41919;42.648;23.384;2023-04-03T00:19:32;93914.38;;;6.92;67.06
56052;BME280;41919;42.648;23.384;2023-04-03T00:21:58;93859.03;;;6.72;66.44
56052;BME280;41919;42.648;23.384;2023-04-03T00:24:23;93889.81;;;6.88;66.50
56052;BME280;41919;42.648;23.384;2023-04-03T00:26:49;93907.78;;;6.83;67.07
56052;BME280;41919;42.648;23.384;2023-04-03T00:29:14;93949.44;;;7.23;66.69
56052;BME280;41919;42.648;23.384;2023-04-03T00:31:40;93933.41;;;7.13;66.30
56052;BME280;41919;42.648;23.384;2023-04-03T00:34:06;93884.56;;;6.75;67.00
56052;BME280;41919;42.648;23.384;2023-04-03T00:36:31;93850.78;;;6.55;67.03
56052;BME280;41919;42.648;23.384;2023-04-03T00:38:56;93935.41;;;7.11;67.10
56052;BME280;41919;42.648;23.384;2023-04-03T00:41:22;93954.25;;;7.39;66.61
56052;BME280;41919;42.648;23.384;2023-04-03T00:43:47;93951.25;;;7.49;66.00
56052;BME280;41919;42.648;23.384;2023-04-03T00:46:13;93955.66;;;7.55;65.72
56052;BME280;41919;42.648;23.384;2023-04-03T00:48:41;93853.84;;;6.85;65.46
56052;BME280;41919;42.648;23.384;2023-04-03T00:51:12;93929.03;;;7.26;65.95
56052;BME280;41919;42.648;23.384;2023-04-03T00:53:41;93884.25;;;7.11;65.34
56052;BME280;41919;42.648;23.384;2023-04-03T00:56:10;93948.25;;;7.39;65.36
56052;BME280;41919;42.648;23.384;2023-04-03T00:58:42;93963.81;;;7.32;65.67
56052;BME280;41919;42.648;23.384;2023-04-03T01:01:11;93868.50;;;6.38;66.91
56052;BME280;41919;42.648;23.384;2023-04-03T01:03:37;93902.94;;;6.60;67.08
56052;BME280;41919;42.648;23.384;2023-04-03T01:06:03;93887.75;;;6.63;66.90
56052;BME280;41919;42.648;23.384;2023-04-03T01:08:29;93889.81;;;6.81;66.62
56052;BME280;41919;42.648;23.384;2023-04-03T01:10:55;93859.03;;;6.72;66.42
56052;BME280;41919;42.648;23.384;2023-04-03T01:13:24;93932.63;;;7.32;66.14
56052;BME280;41919;42.648;23.384;2023-04-03T01:15:50;93943.84;;;7.53;65.70
56052;BME280;41919;42.648;23.384;2023-04-03T01:18:15;93942.66;;;7.62;65.08
56052;BME280;41919;42.648;23.384;2023-04-03T01:21:06;93969.25;;;7.84;64.99
56052;BME280;41919;42.648;23.384;2023-04-03T01:26:13;93958.69;;;7.79;64.50
56052;BME280;41919;42.648;23.384;2023-04-03T01:28:39;93963.47;;;7.62;64.80
56052;BME280;41919;42.648;23.384;2023-04-03T01:33:45;93963.63;;;7.14;66.87
56052;BME280;41919;42.648;23.384;2023-04-03T01:36:23;93955.38;;;7.03;67.30
56052;BME280;41919;42.648;23.384;2023-04-03T01:38:50;93887.50;;;6.52;68.61
56052;BME280;41919;42.648;23.384;2023-04-03T01:41:16;93940.97;;;6.87;68.98
56052;BME280;41919;42.648;23.384;2023-04-03T01:43:41;93964.00;;;7.11;68.41
56052;BME280;41919;42.648;23.384;2023-04-03T01:46:07;93895.78;;;6.75;67.77
56052;BME280;41919;42.648;23.384;2023-04-03T01:48:33;93901.41;;;6.92;67.17
56052;BME280;41919;42.648;23.384;2023-04-03T01:50:58;93964.66;;;7.39;67.44
56052;BME280;41919;42.648;23.384;2023-04-03T01:53:24;93903.63;;;7.09;66.55
56052;BME280;41919;42.648;23.384;2023-04-03T01:55:49;93902.00;;;6.81;67.12
56052;BME280;41919;42.648;23.384;2023-04-03T01:58:15;93872.00;;;6.72;66.58
56052;BME280;41919;42.648;23.384;2023-04-03T02:00:40;93960.81;;;7.22;65.63
56052;BME280;41919;42.648;23.384;2023-04-03T02:03:05;93883.47;;;6.36;67.02
56052;BME280;41919;42.648;23.384;2023-04-03T02:05:32;93929.56;;;6.34;68.27
56052;BME280;41919;42.648;23.384;2023-04-03T02:07:57;93904.63;;;5.98;69.41
56052;BME280;41919;42.648;23.384;2023-04-03T02:10:23;93960.88;;;6.25;70.49
56052;BME280;41919;42.648;23.384;2023-04-03T02:12:48;93976.53;;;6.45;70.05
56052;BME280;41919;42.648;23.384;2023-04-03T02:15:14;93748.56;;;5.04;69.77
56052;BME280;41919;42.648;23.384;2023-04-03T02:17:39;93974.75;;;6.46;70.41
56052;BME280;41919;42.648;23.384;2023-04-03T02:20:05;93912.53;;;6.18;69.81
56052;BME280;41919;42.648;23.384;2023-04-03T02:22:31;93894.69;;;6.01;69.46
56052;BME280;41919;42.648;23.384;2023-04-03T02:24:56;93895.53;;;6.15;68.82
56052;BME280;41919;42.648;23.384;2023-04-03T02:27:22;93950.84;;;6.57;68.54
56052;BME280;41919;42.648;23.384;2023-04-03T02:29:47;93863.50;;;5.95;68.43
56052;BME280;41919;42.648;23.384;2023-04-03T02:32:12;93907.88;;;6.06;69.40
56052;BME280;41919;42.648;23.384;2023-04-03T02:34:38;93871.81;;;5.83;69.41
56052;BME280;41919;42.648;23.384;2023-04-03T02:37:03;93946.53;;;6.30;70.02
56052;BME280;41919;42.648;23.384;2023-04-03T02:39:29;93901.91;;;6.06;70.31
56052;BME280;41919;42.648;23.384;2023-04-03T02:41:54;93888.28;;;5.97;69.99
56052;BME280;41919;42.648;23.384;2023-04-03T02:44:20;93876.25;;;5.89;70.07
56052;BME280;41919;42.648;23.384;2023-04-03T02:46:45;93881.78;;;5.86;70.17
56052;BME280;41919;42.648;23.384;2023-04-03T02:49:10;93890.94;;;5.76;71.47
56052;BME280;41919;42.648;23.384;2023-04-03T02:51:36;93882.06;;;5.35;73.66
56052;BME280;41919;42.648;23.384;2023-04-03T02:54:01;93883.19;;;5.26;74.54
56052;BME280;41919;42.648;23.384;2023-04-03T02:56:27;93860.09;;;5.03;75.86
56052;BME280;41919;42.648;23.384;2023-04-03T02:58:52;93846.09;;;4.97;75.86
56052;BME280;41919;42.648;23.384;2023-04-03T03:01:18;93942.34;;;5.72;75.05
56052;BME280;41919;42.648;23.384;2023-04-03T03:03:43;93929.00;;;5.75;74.41
56052;BME280;41919;42.648;23.384;2023-04-03T03:06:12;93924.72;;;5.61;74.35
56052;BME280;41919;42.648;23.384;2023-04-03T03:08:38;93940.69;;;5.93;73.69
56052;BME280;41919;42.648;23.384;2023-04-03T03:11:04;93858.22;;;5.46;73.23
56052;BME280;41919;42.648;23.384;2023-04-03T03:13:30;93933.72;;;5.93;72.92
56052;BME280;41919;42.648;23.384;2023-04-03T03:15:57;93929.63;;;5.77;72.61
56052;BME280;41919;42.648;23.384;2023-04-03T03:18:22;93925.59;;;5.46;73.60
56052;BME280;41919;42.648;23.384;2023-04-03T03:20:51;93878.50;;;4.71;75.84
56052;BME280;41919;42.648;23.384;2023-04-03T03:23:17;93873.75;;;4.54;78.06
56052;BME280;41919;42.648;23.384;2023-04-03T03:25:43;93938.44;;;4.90;78.94
56052;BME280;41919;42.648;23.384;2023-04-03T03:28:08;93862.94;;;4.28;80.14
56052;BME280;41919;42.648;23.384;2023-04-03T03:30:34;93855.59;;;4.10;80.77
56052;BME280;41919;42.648;23.384;2023-04-03T03:33:00;93917.41;;;4.42;81.89
56052;BME280;41919;42.648;23.384;2023-04-03T03:35:25;93931.09;;;4.36;82.50
56052;BME280;41919;42.648;23.384;2023-04-03T03:37:51;93871.91;;;3.81;83.75
56052;BME280;41919;42.648;23.384;2023-04-03T03:40:16;93757.34;;;3.14;83.58
56052;BME280;41919;42.648;23.384;2023-04-03T03:42:42;93874.03;;;3.92;83.80
56052;BME280;41919;42.648;23.384;2023-04-03T03:45:08;93939.53;;;4.29;84.60
56052;BME280;41919;42.648;23.384;2023-04-03T03:47:34;93886.50;;;4.04;84.05
56052;BME280;41919;42.648;23.384;2023-04-03T03:49:59;93930.63;;;4.32;84.27
56052;BME280;41919;42.648;23.384;2023-04-03T03:52:25;93878.13;;;4.02;84.14
56052;BME280;41919;42.648;23.384;2023-04-03T03:54:51;93868.34;;;3.97;83.91
56052;BME280;41919;42.648;23.384;2023-04-03T03:57:16;93937.84;;;4.37;84.66
56052;BME280;41919;42.648;23.384;2023-04-03T03:59:42;93844.34;;;3.73;84.96
56052;BME280;41919;42.648;23.384;2023-04-03T04:02:10;93940.53;;;4.28;85.70
56052;BME280;41919;42.648;23.384;2023-04-03T04:04:35;93875.72;;;3.85;85.93
56052;BME280;41919;42.648;23.384;2023-04-03T04:07:01;93856.94;;;3.77;85.87
56052;BME280;41919;42.648;23.384;2023-04-03T04:09:27;93850.34;;;3.74;86.31
56052;BME280;41919;42.648;23.384;2023-04-03T04:11:52;93869.94;;;3.83;86.04
56052;BME280;41919;42.648;23.384;2023-04-03T04:14:18;93877.06;;;3.81;86.30
56052;BME280;41919;42.648;23.384;2023-04-03T04:16:46;93885.25;;;3.70;87.36
56052;BME280;41919;42.648;23.384;2023-04-03T04:19:12;93899.81;;;3.71;88.88
56052;BME280;41919;42.648;23.384;2023-04-03T04:21:38;93872.81;;;3.59;88.22
56052;BME280;41919;42.648;23.384;2023-04-03T04:24:04;93850.66;;;3.41;88.46
56052;BME280;41919;42.648;23.384;2023-04-03T04:26:30;93897.50;;;3.76;88.36
56052;BME280;41919;42.648;23.384;2023-04-03T04:28:55;93954.63;;;4.11;88.38
56052;BME280;41919;42.648;23.384;2023-04-03T04:31:21;93950.88;;;4.28;87.18
56052;BME280;41919;42.648;23.384;2023-04-03T04:33:46;93942.50;;;4.41;85.58
56052;BME280;41919;42.648;23.384;2023-04-03T04:36:12;93902.81;;;4.19;84.03
56052;BME280;41919;42.648;23.384;2023-04-03T04:38:37;93900.75;;;4.29;83.07
56052;BME280;41919;42.648;23.384;2023-04-03T04:41:03;93956.16;;;4.71;82.89
56052;BME280;41919;42.648;23.384;2023-04-03T04:43:29;93870.97;;;4.34;82.64
56052;BME280;41919;42.648;23.384;2023-04-03T04:46:02;93879.19;;;4.59;81.28
56052;BME280;41919;42.648;23.384;2023-04-03T04:48:28;93915.75;;;5.14;100.00
56052;BME280;41919;42.648;23.384;2023-04-03T04:50:54;93883.69;;;5.15;99.41
56052;BME280;41919;42.648;23.384;2023-04-03T04:53:19;93916.25;;;5.52;88.52
56052;BME280;41919;42.648;23.384;2023-04-03T04:55:45;93976.97;;;6.14;81.92
56052;BME280;41919;42.648;23.384;2023-04-03T04:58:10;93782.34;;;4.96;76.88
56052;BME280;41919;42.648;23.384;2023-04-03T05:00:36;93912.16;;;5.36;77.47
56052;BME280;41919;42.648;23.384;2023-04-03T05:03:01;93921.94;;;5.13;79.89
56052;BME280;41919;42.648;23.384;2023-04-03T05:05:26;94003.59;;;5.30;82.30
56052;BME280;41919;42.648;23.384;2023-04-03T05:07:52;93982.47;;;4.90;83.93
56052;BME280;41919;42.648;23.384;2023-04-03T05:10:18;93989.06;;;4.93;84.37
56052;BME280;41919;42.648;23.384;2023-04-03T05:12:43;93956.53;;;4.68;84.72
56052;BME280;41919;42.648;23.384;2023-04-03T05:15:09;93775.31;;;3.52;84.10
56052;BME280;41919;42.648;23.384;2023-04-03T05:17:34;93885.94;;;4.23;84.80
56052;BME280;41919;42.648;23.384;2023-04-03T05:20:00;93934.78;;;4.48;85.09
56052;BME280;41919;42.648;23.384;2023-04-03T05:22:25;94017.38;;;5.16;85.15
56052;BME280;41919;42.648;23.384;2023-04-03T05:24:51;93933.41;;;4.67;85.23
56052;BME280;41919;42.648;23.384;2023-04-03T05:27:16;94004.69;;;5.42;84.39
56052;BME280;41919;42.648;23.384;2023-04-03T05:29:42;93999.38;;;5.72;83.03
56052;BME280;41919;42.648;23.384;2023-04-03T05:32:09;93924.63;;;5.47;81.30
56052;BME280;41919;42.648;23.384;2023-04-03T05:34:35;93934.81;;;5.77;80.73
56052;BME280;41919;42.648;23.384;2023-04-03T05:37:01;93949.22;;;6.15;79.75
56052;BME280;41919;42.648;23.384;2023-04-03T05:39:28;93968.88;;;6.65;78.66
56052;BME280;41919;42.648;23.384;2023-04-03T05:41:53;93839.31;;;6.22;76.99
56052;BME280;41919;42.648;23.384;2023-04-03T05:44:19;93913.41;;;7.00;74.92
56052;BME280;41919;42.648;23.384;2023-04-03T05:46:45;93981.06;;;7.66;73.09
56052;BME280;41919;42.648;23.384;2023-04-03T05:49:10;93976.28;;;7.83;71.70
56052;BME280;41919;42.648;23.384;2023-04-03T05:51:36;93986.63;;;8.17;70.20
56052;BME280;41919;42.648;23.384;2023-04-03T05:54:21;93914.25;;;7.87;71.14
56052;BME280;41919;42.648;23.384;2023-04-03T05:56:49;93921.44;;;7.78;70.65
56052;BME280;41919;42.648;23.384;2023-04-03T05:59:15;93989.84;;;8.25;70.47
56052;BME280;41919;42.648;23.384;2023-04-03T06:01:40;93985.84;;;8.23;70.62
56052;BME280;41919;42.648;23.384;2023-04-03T06:04:06;93920.63;;;8.11;70.05
56052;BME280;41919;42.648;23.384;2023-04-03T06:06:50;93967.28;;;8.85;68.97
56052;BME280;41919;42.648;23.384;2023-04-03T06:09:17;93896.19;;;8.71;67.24
56052;BME280;41919;42.648;23.384;2023-04-03T06:11:43;93979.03;;;9.39;66.10
56052;BME280;41919;42.648;23.384;2023-04-03T06:14:09;93978.47;;;9.62;64.56
56052;BME280;41919;42.648;23.384;2023-04-03T06:16:34;93974.69;;;9.83;62.66
56052;BME280;41919;42.648;23.384;2023-04-03T06:19:00;93903.47;;;9.57;60.82
56052;BME280;41919;42.648;23.384;2023-04-03T06:21:26;93951.84;;;10.04;60.26
56052;BME280;41919;42.648;23.384;2023-04-03T06:23:51;93974.34;;;10.23;59.82
56052;BME280;41919;42.648;23.384;2023-04-03T06:26:17;93911.56;;;9.74;59.76
56052;BME280;41919;42.648;23.384;2023-04-03T06:28:42;93922.13;;;9.79;59.57
56052;BME280;41919;42.648;23.384;2023-04-03T06:31:08;93968.25;;;10.11;60.11
56052;BME280;41919;42.648;23.384;2023-04-03T06:33:34;93975.13;;;10.05;59.84
56052;BME280;41919;42.648;23.384;2023-04-03T06:36:00;93965.91;;;9.77;60.18
56052;BME280;41919;42.648;23.384;2023-04-03T06:38:28;93988.03;;;9.68;60.88
56052;BME280;41919;42.648;23.384;2023-04-03T06:40:53;93986.16;;;9.57;62.72
56052;BME280;41919;42.648;23.384;2023-04-03T06:43:19;93940.25;;;9.49;62.08
56052;BME280;41919;42.648;23.384;2023-04-03T06:45:45;93939.88;;;9.71;61.60
56052;BME280;41919;42.648;23.384;2023-04-03T06:48:12;93911.81;;;9.66;61.42
56052;BME280;41919;42.648;23.384;2023-04-03T06:50:38;93917.84;;;9.41;63.02
56052;BME280;41919;42.648;23.384;2023-04-03T06:53:03;93915.41;;;9.15;62.71
56052;BME280;41919;42.648;23.384;2023-04-03T06:55:29;93931.91;;;9.02;62.79
56052;BME280;41919;42.648;23.384;2023-04-03T06:57:54;93984.44;;;9.37;63.11
56052;BME280;41919;42.648;23.384;2023-04-03T07:00:20;93983.44;;;9.38;64.17
56052;BME280;41919;42.648;23.384;2023-04-03T07:02:46;93934.78;;;8.94;64.32
56052;BME280;41919;42.648;23.384;2023-04-03T07:05:12;93990.25;;;9.39;65.77
56052;BME280;41919;42.648;23.384;2023-04-03T07:07:38;93915.44;;;9.08;64.78
56052;BME280;41919;42.648;23.384;2023-04-03T07:10:05;93983.00;;;9.73;63.84
56052;BME280;41919;42.648;23.384;2023-04-03T07:12:31;93898.34;;;9.44;63.72
56052;BME280;41919;42.648;23.384;2023-04-03T07:14:56;93973.50;;;10.29;62.85
56052;BME280;41919;42.648;23.384;2023-04-03T07:17:22;93931.69;;;10.36;61.68
56052;BME280;41919;42.648;23.384;2023-04-03T07:19:48;93920.47;;;10.66;60.63
56052;BME280;41919;42.648;23.384;2023-04-03T07:22:13;93901.28;;;10.90;59.13
56052;BME280;41919;42.648;23.384;2023-04-03T07:24:39;93931.81;;;11.38;58.30
56052;BME280;41919;42.648;23.384;2023-04-03T07:27:04;93902.59;;;11.42;57.27
56052;BME280;41919;42.648;23.384;2023-04-03T07:29:30;93946.09;;;11.66;56.50
56052;BME280;41919;42.648;23.384;2023-04-03T07:31:56;93899.84;;;11.48;55.80
56052;BME280;41919;42.648;23.384;2023-04-03T07:34:21;93890.44;;;11.47;55.63
56052;BME280;41919;42.648;23.384;2023-04-03T07:36:47;93915.34;;;11.73;55.45
56052;BME280;41919;42.648;23.384;2023-04-03T07:39:12;93920.09;;;11.95;54.45
56052;BME280;41919;42.648;23.384;2023-04-03T07:41:38;93925.28;;;12.54;52.62
56052;BME280;41919;42.648;23.384;2023-04-03T07:44:03;93947.38;;;12.46;53.27
56052;BME280;41919;42.648;23.384;2023-04-03T07:46:31;93954.91;;;12.31;53.22
56052;BME280;41919;42.648;23.384;2023-04-03T07:48:56;93951.28;;;12.44;53.22
56052;BME280;41919;42.648;23.384;2023-04-03T07:51:22;93935.47;;;12.03;53.43
56052;BME280;41919;42.648;23.384;2023-04-03T07:53:47;93932.84;;;11.91;54.99
56052;BME280;41919;42.648;23.384;2023-04-03T07:56:13;93886.69;;;11.67;53.95
56052;BME280;41919;42.648;23.384;2023-04-03T07:58:39;93885.22;;;11.59;54.96
56052;BME280;41919;42.648;23.384;2023-04-03T08:01:05;93945.25;;;12.08;54.40
56052;BME280;41919;42.648;23.384;2023-04-03T08:03:31;93918.03;;;12.09;53.53
56052;BME280;41919;42.648;23.384;2023-04-03T08:06:02;93874.44;;;11.91;53.15
56052;BME280;41919;42.648;23.384;2023-04-03T08:08:28;93882.53;;;12.01;53.23
56052;BME280;41919;42.648;23.384;2023-04-03T08:10:55;93881.25;;;12.15;53.13
56052;BME280;41919;42.648;23.384;2023-04-03T08:13:22;93772.00;;;11.52;53.17
56052;BME280;41919;42.648;23.384;2023-04-03T08:15:48;93907.63;;;12.49;52.94
56052;BME280;41919;42.648;23.384;2023-04-03T08:18:14;93869.94;;;12.27;51.97
56052;BME280;41919;42.648;23.384;2023-04-03T08:20:40;93913.22;;;12.41;53.61
56052;BME280;41919;42.648;23.384;2023-04-03T08:23:07;93878.81;;;11.43;56.29
56052;BME280;41919;42.648;23.384;2023-04-03T08:25:37;93930.22;;;12.15;54.91
56052;BME280;41919;42.648;23.384;2023-04-03T08:28:02;93744.94;;;11.11;54.34
56052;BME280;41919;42.648;23.384;2023-04-03T08:30:28;93867.78;;;11.53;55.66
56052;BME280;41919;42.648;23.384;2023-04-03T08:32:55;93916.00;;;12.11;55.65
56052;BME280;41919;42.648;23.384;2023-04-03T08:35:26;93929.06;;;12.23;55.72
56052;BME280;41919;42.648;23.384;2023-04-03T08:37:58;93928.22;;;12.58;54.29
56052;BME280;41919;42.648;23.384;2023-04-03T08:40:24;93911.25;;;12.60;54.06
56052;BME280;41919;42.648;23.384;2023-04-03T08:45:45;93879.41;;;12.28;54.24
56052;BME280;41919;42.648;23.384;2023-04-03T08:48:41;93917.97;;;12.68;54.02
56052;BME280;41919;42.648;23.384;2023-04-03T08:51:16;93825.22;;;11.81;55.00
56052;BME280;41919;42.648;23.384;2023-04-03T08:56:22;93854.16;;;11.98;55.99
56052;BME280;41919;42.648;23.384;2023-04-03T08:58:57;93845.72;;;12.20;55.29
56052;BME280;41919;42.648;23.384;2023-04-03T09:01:33;93841.19;;;12.03;55.07
56052;BME280;41919;42.648;23.384;2023-04-03T09:04:01;93904.72;;;12.22;56.28
56052;BME280;41919;42.648;23.384;2023-04-03T09:06:30;93850.75;;;11.98;56.25
56052;BME280;41919;42.648;23.384;2023-04-03T09:09:24;93891.78;;;12.44;55.96
56052;BME280;41919;42.648;23.384;2023-04-03T09:17:27;93885.75;;;13.13;54.76
56052;BME280;41919;42.648;23.384;2023-04-03T09:26:56;93864.25;;;13.28;53.70
56052;BME280;41919;42.648;23.384;2023-04-03T09:29:25;93863.09;;;13.36;53.38
56052;BME280;41919;42.648;23.384;2023-04-03T09:31:56;93810.50;;;13.30;52.21
56052;BME280;41919;42.648;23.384;2023-04-03T09:34:27;93784.00;;;13.15;51.30
56052;BME280;41919;42.648;23.384;2023-04-03T09:36:55;93809.72;;;13.47;49.75
56052;BME280;41919;42.648;23.384;2023-04-03T09:39:27;93814.88;;;13.42;49.00
56052;BME280;41919;42.648;23.384;2023-04-03T09:42:14;93813.78;;;13.38;50.00
56052;BME280;41919;42.648;23.384;2023-04-03T09:44:48;93852.28;;;13.83;48.61
56052;BME280;41919;42.648;23.384;2023-04-03T09:47:26;93801.66;;;13.70;47.65
56052;BME280;41919;42.648;23.384;2023-04-03T09:52:35;93803.44;;;13.48;49.62
56052;BME280;41919;42.648;23.384;2023-04-03T09:57:40;93789.50;;;13.64;49.65
56052;BME280;41919;42.648;23.384;2023-04-03T10:00:20;93798.19;;;13.48;48.43
56052;BME280;41919;42.648;23.384;2023-04-03T10:02:50;93831.41;;;13.59;48.74
56052;BME280;41919;42.648;23.384;2023-04-03T10:08:29;93844.06;;;13.45;48.30
56052;BME280;41919;42.648;23.384;2023-04-03T10:11:10;93848.66;;;13.21;49.55
56052;BME280;41919;42.648;23.384;2023-04-03T10:13:49;93784.22;;;12.80;49.67
56052;BME280;41919;42.648;23.384;2023-04-03T10:16:17;93783.81;;;12.88;49.65
56052;BME280;41919;42.648;23.384;2023-04-03T10:18:55;93841.56;;;13.22;49.07
56052;BME280;41919;42.648;23.384;2023-04-03T10:21:50;93843.63;;;13.03;49.74
56052;BME280;41919;42.648;23.384;2023-04-03T10:27:10;93807.75;;;12.63;50.57
56052;BME280;41919;42.648;23.384;2023-04-03T10:35:06;93825.97;;;12.41;51.12
56052;BME280;41919;42.648;23.384;2023-04-03T10:43:21;93817.47;;;12.22;52.68
56052;BME280;41919;42.648;23.384;2023-04-03T10:46:00;93811.00;;;12.12;52.51
56052;BME280;41919;42.648;23.384;2023-04-03T10:49:30;93738.91;;;11.46;52.83
56052;BME280;41919;42.648;23.384;2023-04-03T10:51:45;93810.78;;;11.90;52.83
56052;BME280;41919;42.648;23.384;2023-04-03T10:54:20;93750.06;;;11.41;53.15
56052;BME280;41919;42.648;23.384;2023-04-03T10:56:53;93811.47;;;11.74;53.87
56052;BME280;41919;42.648;23.384;2023-04-03T10:59:32;93741.28;;;11.24;54.46
56052;BME280;41919;42.648;23.384;2023-04-03T11:02:07;93792.94;;;11.40;55.22
56052;BME280;41919;42.648;23.384;2023-04-03T11:04:39;93743.78;;;11.07;57.65
56052;BME280;41919;42.648;23.384;2023-04-03T11:07:12;93765.59;;;11.01;56.99
56052;BME280;41919;42.648;23.384;2023-04-03T11:09:42;93708.25;;;10.64;58.44
56052;BME280;41919;42.648;23.384;2023-04-03T11:12:29;93823.28;;;11.29;60.96
56052;BME280;41919;42.648;23.384;2023-04-03T11:15:02;93817.09;;;11.12;61.55
56052;BME280;41919;42.648;23.384;2023-04-03T11:17:35;93831.22;;;11.11;62.46
56052;BME280;41919;42.648;23.384;2023-04-03T11:20:30;93821.53;;;10.99;68.10
56052;BME280;41919;42.648;23.384;2023-04-03T11:23:02;93820.44;;;10.77;67.25
56052;BME280;41919;42.648;23.384;2023-04-03T11:25:31;93752.34;;;10.30;70.59
56052;BME280;41919;42.648;23.384;2023-04-03T11:27:59;93827.56;;;10.70;74.11
56052;BME280;41919;42.648;23.384;2023-04-03T11:33:28;93814.97;;;10.67;75.28
56052;BME280;41919;42.648;23.384;2023-04-03T11:36:00;93815.03;;;10.60;77.00
56052;BME280;41919;42.648;23.384;2023-04-03T11:38:36;93792.16;;;10.44;78.30
56052;BME280;41919;42.648;23.384;2023-04-03T11:41:08;93823.78;;;10.35;81.37
56052;BME280;41919;42.648;23.384;2023-04-03T11:43:40;93794.50;;;10.15;84.39
56052;BME280;41919;42.648;23.384;2023-04-03T11:46:08;93804.41;;;10.06;86.72
56052;BME280;41919;42.648;23.384;2023-04-03T11:51:01;93828.41;;;9.96;91.08
56052;BME280;41919;42.648;23.384;2023-04-03T11:53:40;93819.44;;;9.92;93.22
56052;BME280;41919;42.648;23.384;2023-04-03T12:02:14;93833.25;;;9.56;100.00
56052;BME280;41919;42.648;23.384;2023-04-03T12:05:27;93828.88;;;9.50;100.00
56052;BME280;41919;42.648;23.384;2023-04-03T12:08:15;93824.53;;;9.44;100.00
56052;BME280;41919;42.648;23.384;2023-04-03T12:10:41;93837.41;;;9.38;100.00
56052;BME280;41919;42.648;23.384;2023-04-03T12:13:15;93830.00;;;9.35;100.00
56052;BME280;41919;42.648;23.384;2023-04-03T12:18:42;93827.00;;;9.32;100.00
56052;BME280;41919;42.648;23.384;2023-04-03T12:21:10;93814.16;;;9.37;100.00
56052;BME280;41919;42.648;23.384;2023-04-03T12:23:58;93734.31;;;8.92;100.00
56052;BME280;41919;42.648;23.384;2023-04-03T12:26:34;93801.78;;;9.51;100.00
56052;BME280;41919;42.648;23.384;2023-04-03T12:29:17;93817.25;;;9.71;100.00
56052;BME280;41919;42.648;23.384;2023-04-03T12:45:50;93786.03;;;9.39;100.00
56052;BME280;41919;42.648;23.384;2023-04-03T12:48:22;93700.88;;;8.89;100.00
56052;BME280;41919;42.648;23.384;2023-04-03T12:50:50;93657.63;;;8.63;100.00
56052;BME280;41919;42.648;23.384;2023-04-03T12:53:25;93754.88;;;9.26;100.00
56052;BME280;41919;42.648;23.384;2023-04-03T12:56:23;93774.66;;;9.33;100.00
56052;BME280;41919;42.648;23.384;2023-04-03T12:58:52;93761.03;;;9.31;100.00
56052;BME280;41919;42.648;23.384;2023-04-03T13:01:25;93698.25;;;8.89;100.00
56052;BME280;41919;42.648;23.384;2023-04-03T13:03:56;93767.50;;;9.47;100.00
56052;BME280;41919;42.648;23.384;2023-04-03T13:06:26;93774.97;;;9.44;100.00
56052;BME280;41919;42.648;23.384;2023-04-03T13:08:57;93716.56;;;8.82;100.00
56052;BME280;41919;42.648;23.384;2023-04-03T13:11:32;93703.69;;;8.62;100.00
56052;BME280;41919;42.648;23.384;2023-04-03T13:14:04;93698.47;;;8.62;100.00
56052;BME280;41919;42.648;23.384;2023-04-03T13:16:30;93785.16;;;9.01;100.00
56052;BME280;41919;42.648;23.384;2023-04-03T13:18:57;93773.78;;;8.64;100.00
56052;BME280;41919;42.648;23.384;2023-04-03T13:21:26;93778.50;;;8.80;100.00
56052;BME280;41919;42.648;23.384;2023-04-03T13:23:59;93764.53;;;8.75;100.00
56052;BME280;41919;42.648;23.384;2023-04-03T13:26:29;93714.78;;;8.51;100.00
56052;BME280;41919;42.648;23.384;2023-04-03T13:29:01;93689.91;;;8.23;100.00
56052;BME280;41919;42.648;23.384;2023-04-03T13:31:31;93764.06;;;8.78;100.00
56052;BME280;41919;42.648;23.384;2023-04-03T13:36:29;93694.22;;;8.43;100.00
56052;BME280;41919;42.648;23.384;2023-04-03T13:41:39;93738.41;;;8.81;100.00
56052;BME280;41919;42.648;23.384;2023-04-03T13:44:28;93774.31;;;9.05;100.00
56052;BME280;41919;42.648;23.384;2023-04-03T13:47:14;93743.72;;;8.68;100.00
56052;BME280;41919;42.648;23.384;2023-04-03T13:52:33;93756.34;;;8.64;100.00
56052;BME280;41919;42.648;23.384;2023-04-03T13:55:32;93749.81;;;8.55;100.00
56052;BME280;41919;42.648;23.384;2023-04-03T13:58:01;93757.84;;;8.54;100.00
56052;BME280;41919;42.648;23.384;2023-04-03T14:00:32;93692.41;;;8.05;100.00
56052;BME280;41919;42.648;23.384;2023-04-03T14:02:58;93753.88;;;8.38;100.00
56052;BME280;41919;42.648;23.384;2023-04-03T14:05:24;93746.13;;;8.31;100.00
56052;BME280;41919;42.648;23.384;2023-04-03T14:07:51;93741.13;;;8.30;100.00
56052;BME280;41919;42.648;23.384;2023-04-03T14:10:17;93734.34;;;8.29;100.00
56052;BME280;41919;42.648;23.384;2023-04-03T14:12:43;93614.69;;;7.52;100.00
56052;BME280;41919;42.648;23.384;2023-04-03T14:15:23;93660.09;;;7.88;100.00
56052;BME280;41919;42.648;23.384;2023-04-03T14:17:50;93664.13;;;7.83;100.00
56052;BME280;41919;42.648;23.384;2023-04-03T14:20:19;93737.94;;;8.28;100.00
56052;BME280;41919;42.648;23.384;2023-04-03T14:22:47;93659.94;;;7.82;100.00
56052;BME280;41919;42.648;23.384;2023-04-03T14:25:14;93649.53;;;7.82;100.00